San German, Puerto Rico
Current Conditions -  °F | °C
As of 5:50 PM on Monday 20 Oct 2014 (Local Time) from TJBQ Reporting Station
Scattered Clouds Scattered Clouds  
Wind Chill: 82°   Ceiling: Unl
Heat Index: 88°   Visibility: 10mi
Dew Point: 73°   Wind: 12mph
Humidity: 74%   Direction: 70°ENE
Pressure: 29.93"   Gusts: NA
Location:  18.08°N, 67.05°W
Report Text: TJBQ 202150Z 07010KT 10SM SCT022 SCT028 28/23 A2993 RMK LTG DSNT E-S ---RWY08 ATIS O
Loading
Personal Weather Stations






























Interactive Weather Map
Tropical Storm Tracking
New forecast layout! Learn more

10-Day Weather Forecast

Advertisements
Track Severe Weather on mobile